sensor_id;sensor_type;location;lat;lon;timestamp;P1;durP1;ratioP1;P2;durP2;ratioP2
12958;SDS011;6544;51.666;6.634;2023-04-03T00:00:36;6.37;;;4.80;;
12958;SDS011;6544;51.666;6.634;2023-04-03T00:03:03;6.30;;;4.40;;
12958;SDS011;6544;51.666;6.634;2023-04-03T00:05:30;7.17;;;4.50;;
12958;SDS011;6544;51.666;6.634;2023-04-03T00:07:58;8.20;;;4.90;;
12958;SDS011;6544;51.666;6.634;2023-04-03T00:10:27;5.87;;;4.70;;
12958;SDS011;6544;51.666;6.634;2023-04-03T00:12:54;5.80;;;4.30;;
12958;SDS011;6544;51.666;6.634;2023-04-03T00:15:21;6.40;;;4.40;;
12958;SDS011;6544;51.666;6.634;2023-04-03T00:17:53;7.87;;;4.50;;
12958;SDS011;6544;51.666;6.634;2023-04-03T00:20:20;5.83;;;4.43;;
12958;SDS011;6544;51.666;6.634;2023-04-03T00:22:47;6.93;;;4.80;;
12958;SDS011;6544;51.666;6.634;2023-04-03T00:25:15;9.80;;;5.37;;
12958;SDS011;6544;51.666;6.634;2023-04-03T00:27:42;11.80;;;4.77;;
12958;SDS011;6544;51.666;6.634;2023-04-03T00:30:10;5.60;;;4.27;;
12958;SDS011;6544;51.666;6.634;2023-04-03T00:32:39;6.20;;;4.57;;
12958;SDS011;6544;51.666;6.634;2023-04-03T00:35:06;6.40;;;4.23;;
12958;SDS011;6544;51.666;6.634;2023-04-03T00:37:33;6.67;;;4.30;;
12958;SDS011;6544;51.666;6.634;2023-04-03T00:40:00;5.77;;;4.27;;
12958;SDS011;6544;51.666;6.634;2023-04-03T00:42:29;5.80;;;4.40;;
12958;SDS011;6544;51.666;6.634;2023-04-03T00:47:56;6.17;;;4.47;;
12958;SDS011;6544;51.666;6.634;2023-04-03T00:50:26;6.27;;;4.43;;
12958;SDS011;6544;51.666;6.634;2023-04-03T00:52:53;6.87;;;3.93;;
12958;SDS011;6544;51.666;6.634;2023-04-03T00:55:21;6.83;;;3.80;;
12958;SDS011;6544;51.666;6.634;2023-04-03T00:57:50;5.43;;;3.80;;
12958;SDS011;6544;51.666;6.634;2023-04-03T01:00:19;6.17;;;4.10;;
12958;SDS011;6544;51.666;6.634;2023-04-03T01:02:47;5.00;;;3.93;;
12958;SDS011;6544;51.666;6.634;2023-04-03T01:05:14;5.57;;;3.80;;
12958;SDS011;6544;51.666;6.634;2023-04-03T01:07:43;4.77;;;3.70;;
12958;SDS011;6544;51.666;6.634;2023-04-03T01:10:11;8.10;;;3.63;;
12958;SDS011;6544;51.666;6.634;2023-04-03T01:12:41;4.50;;;3.43;;
12958;SDS011;6544;51.666;6.634;2023-04-03T01:15:12;7.10;;;3.67;;
12958;SDS011;6544;51.666;6.634;2023-04-03T01:17:41;5.47;;;3.40;;
12958;SDS011;6544;51.666;6.634;2023-04-03T01:20:26;8.17;;;3.20;;
12958;SDS011;6544;51.666;6.634;2023-04-03T01:23:22;4.13;;;3.13;;
12958;SDS011;6544;51.666;6.634;2023-04-03T01:25:58;5.50;;;2.80;;
12958;SDS011;6544;51.666;6.634;2023-04-03T01:28:27;3.80;;;2.80;;
12958;SDS011;6544;51.666;6.634;2023-04-03T01:30:58;4.20;;;3.00;;
12958;SDS011;6544;51.666;6.634;2023-04-03T01:33:32;5.97;;;2.80;;
12958;SDS011;6544;51.666;6.634;2023-04-03T01:36:00;4.67;;;2.80;;
12958;SDS011;6544;51.666;6.634;2023-04-03T01:38:27;5.80;;;3.10;;
12958;SDS011;6544;51.666;6.634;2023-04-03T01:40:54;4.80;;;2.50;;
12958;SDS011;6544;51.666;6.634;2023-04-03T01:43:21;5.80;;;2.57;;
12958;SDS011;6544;51.666;6.634;2023-04-03T01:45:47;3.53;;;2.33;;
12958;SDS011;6544;51.666;6.634;2023-04-03T01:48:15;3.80;;;2.63;;
12958;SDS011;6544;51.666;6.634;2023-04-03T01:50:43;5.90;;;2.47;;
12958;SDS011;6544;51.666;6.634;2023-04-03T01:53:10;5.73;;;2.57;;
12958;SDS011;6544;51.666;6.634;2023-04-03T01:55:39;4.13;;;2.67;;
12958;SDS011;6544;51.666;6.634;2023-04-03T01:58:05;4.03;;;2.40;;
12958;SDS011;6544;51.666;6.634;2023-04-03T02:00:32;5.00;;;2.50;;
12958;SDS011;6544;51.666;6.634;2023-04-03T02:02:59;4.00;;;2.20;;
12958;SDS011;6544;51.666;6.634;2023-04-03T02:05:26;4.97;;;2.30;;
12958;SDS011;6544;51.666;6.634;2023-04-03T02:07:54;8.30;;;2.50;;
12958;SDS011;6544;51.666;6.634;2023-04-03T02:10:21;5.93;;;2.30;;
12958;SDS011;6544;51.666;6.634;2023-04-03T02:12:48;3.17;;;2.00;;
12958;SDS011;6544;51.666;6.634;2023-04-03T02:15:15;4.77;;;2.40;;
12958;SDS011;6544;51.666;6.634;2023-04-03T02:17:51;4.77;;;2.37;;
12958;SDS011;6544;51.666;6.634;2023-04-03T02:20:18;4.00;;;2.30;;
12958;SDS011;6544;51.666;6.634;2023-04-03T02:22:45;4.00;;;2.27;;
12958;SDS011;6544;51.666;6.634;2023-04-03T02:25:14;5.43;;;2.40;;
12958;SDS011;6544;51.666;6.634;2023-04-03T02:27:42;5.57;;;2.30;;
12958;SDS011;6544;51.666;6.634;2023-04-03T02:30:10;6.33;;;2.30;;
12958;SDS011;6544;51.666;6.634;2023-04-03T02:32:37;5.23;;;2.20;;
12958;SDS011;6544;51.666;6.634;2023-04-03T02:35:06;3.93;;;2.57;;
12958;SDS011;6544;51.666;6.634;2023-04-03T02:37:33;4.30;;;2.20;;
12958;SDS011;6544;51.666;6.634;2023-04-03T02:40:00;4.27;;;2.17;;
12958;SDS011;6544;51.666;6.634;2023-04-03T02:42:29;5.57;;;2.40;;
12958;SDS011;6544;51.666;6.634;2023-04-03T02:44:56;5.17;;;2.30;;
12958;SDS011;6544;51.666;6.634;2023-04-03T02:47:25;4.07;;;2.40;;
12958;SDS011;6544;51.666;6.634;2023-04-03T02:49:52;5.83;;;2.30;;
12958;SDS011;6544;51.666;6.634;2023-04-03T02:52:19;5.50;;;2.53;;
12958;SDS011;6544;51.666;6.634;2023-04-03T02:54:46;4.20;;;2.40;;
12958;SDS011;6544;51.666;6.634;2023-04-03T02:57:13;3.27;;;2.10;;
12958;SDS011;6544;51.666;6.634;2023-04-03T02:59:41;4.90;;;2.40;;
12958;SDS011;6544;51.666;6.634;2023-04-03T03:02:09;3.17;;;2.20;;
12958;SDS011;6544;51.666;6.634;2023-04-03T03:04:36;4.60;;;2.20;;
12958;SDS011;6544;51.666;6.634;2023-04-03T03:07:03;4.30;;;2.10;;
12958;SDS011;6544;51.666;6.634;2023-04-03T03:09:30;4.63;;;2.40;;
12958;SDS011;6544;51.666;6.634;2023-04-03T03:11:57;4.57;;;2.20;;
12958;SDS011;6544;51.666;6.634;2023-04-03T03:14:25;4.53;;;2.00;;
12958;SDS011;6544;51.666;6.634;2023-04-03T03:16:53;3.60;;;2.00;;
12958;SDS011;6544;51.666;6.634;2023-04-03T03:19:20;4.53;;;2.40;;
12958;SDS011;6544;51.666;6.634;2023-04-03T03:21:47;4.80;;;2.50;;
12958;SDS011;6544;51.666;6.634;2023-04-03T03:24:13;5.43;;;2.30;;
12958;SDS011;6544;51.666;6.634;2023-04-03T03:26:41;4.13;;;2.43;;
12958;SDS011;6544;51.666;6.634;2023-04-03T03:29:08;5.93;;;2.17;;
12958;SDS011;6544;51.666;6.634;2023-04-03T03:31:35;7.07;;;2.50;;
12958;SDS011;6544;51.666;6.634;2023-04-03T03:34:03;3.80;;;2.40;;
12958;SDS011;6544;51.666;6.634;2023-04-03T03:36:30;3.77;;;2.20;;
12958;SDS011;6544;51.666;6.634;2023-04-03T03:38:56;3.00;;;2.10;;
12958;SDS011;6544;51.666;6.634;2023-04-03T03:41:25;6.50;;;2.43;;
12958;SDS011;6544;51.666;6.634;2023-04-03T03:43:52;5.70;;;2.40;;
12958;SDS011;6544;51.666;6.634;2023-04-03T03:46:19;3.87;;;2.30;;
12958;SDS011;6544;51.666;6.634;2023-04-03T03:48:46;3.77;;;2.07;;
12958;SDS011;6544;51.666;6.634;2023-04-03T03:51:14;7.27;;;2.53;;
12958;SDS011;6544;51.666;6.634;2023-04-03T03:53:41;5.07;;;2.70;;
12958;SDS011;6544;51.666;6.634;2023-04-03T03:56:08;4.13;;;2.17;;
12958;SDS011;6544;51.666;6.634;2023-04-03T03:58:35;5.37;;;2.30;;
12958;SDS011;6544;51.666;6.634;2023-04-03T04:01:03;4.00;;;2.30;;
12958;SDS011;6544;51.666;6.634;2023-04-03T04:03:31;5.40;;;2.30;;
12958;SDS011;6544;51.666;6.634;2023-04-03T04:05:58;6.20;;;2.40;;
12958;SDS011;6544;51.666;6.634;2023-04-03T04:08:26;6.07;;;2.30;;
12958;SDS011;6544;51.666;6.634;2023-04-03T04:10:53;6.37;;;2.23;;
12958;SDS011;6544;51.666;6.634;2023-04-03T04:13:20;5.17;;;2.60;;
12958;SDS011;6544;51.666;6.634;2023-04-03T04:15:47;7.07;;;2.43;;
12958;SDS011;6544;51.666;6.634;2023-04-03T04:18:14;5.27;;;2.50;;
12958;SDS011;6544;51.666;6.634;2023-04-03T04:20:41;4.30;;;2.60;;
12958;SDS011;6544;51.666;6.634;2023-04-03T04:23:08;8.33;;;2.67;;
12958;SDS011;6544;51.666;6.634;2023-04-03T04:25:36;3.50;;;2.40;;
12958;SDS011;6544;51.666;6.634;2023-04-03T04:28:03;5.03;;;2.43;;
12958;SDS011;6544;51.666;6.634;2023-04-03T04:30:30;3.87;;;2.20;;
12958;SDS011;6544;51.666;6.634;2023-04-03T04:33:09;5.53;;;2.37;;
12958;SDS011;6544;51.666;6.634;2023-04-03T04:35:36;6.57;;;2.40;;
12958;SDS011;6544;51.666;6.634;2023-04-03T04:38:03;6.60;;;2.43;;
12958;SDS011;6544;51.666;6.634;2023-04-03T04:40:30;3.13;;;2.03;;
12958;SDS011;6544;51.666;6.634;2023-04-03T04:42:58;4.37;;;2.60;;
12958;SDS011;6544;51.666;6.634;2023-04-03T04:45:25;5.83;;;2.37;;
12958;SDS011;6544;51.666;6.634;2023-04-03T04:47:54;3.87;;;2.30;;
12958;SDS011;6544;51.666;6.634;2023-04-03T04:50:21;6.40;;;2.80;;
12958;SDS011;6544;51.666;6.634;2023-04-03T04:52:48;7.90;;;2.50;;
12958;SDS011;6544;51.666;6.634;2023-04-03T04:55:15;8.23;;;2.67;;
12958;SDS011;6544;51.666;6.634;2023-04-03T04:57:42;5.87;;;2.60;;
12958;SDS011;6544;51.666;6.634;2023-04-03T05:00:11;4.80;;;2.80;;
12958;SDS011;6544;51.666;6.634;2023-04-03T05:02:38;5.87;;;2.63;;
12958;SDS011;6544;51.666;6.634;2023-04-03T05:05:05;6.77;;;2.97;;
12958;SDS011;6544;51.666;6.634;2023-04-03T05:07:33;6.60;;;2.80;;
12958;SDS011;6544;51.666;6.634;2023-04-03T05:10:00;7.17;;;2.70;;
12958;SDS011;6544;51.666;6.634;2023-04-03T05:12:28;6.23;;;2.90;;
12958;SDS011;6544;51.666;6.634;2023-04-03T05:14:55;5.50;;;2.70;;
12958;SDS011;6544;51.666;6.634;2023-04-03T05:17:23;5.17;;;2.80;;
12958;SDS011;6544;51.666;6.634;2023-04-03T05:19:50;4.47;;;2.60;;
12958;SDS011;6544;51.666;6.634;2023-04-03T05:22:17;5.13;;;2.77;;
12958;SDS011;6544;51.666;6.634;2023-04-03T05:24:44;8.20;;;3.47;;
12958;SDS011;6544;51.666;6.634;2023-04-03T05:27:10;7.40;;;2.77;;
12958;SDS011;6544;51.666;6.634;2023-04-03T05:29:37;5.53;;;2.60;;
12958;SDS011;6544;51.666;6.634;2023-04-03T05:32:08;8.10;;;2.93;;
12958;SDS011;6544;51.666;6.634;2023-04-03T05:34:37;6.83;;;2.53;;
12958;SDS011;6544;51.666;6.634;2023-04-03T05:37:04;7.70;;;2.73;;
12958;SDS011;6544;51.666;6.634;2023-04-03T05:39:30;6.33;;;2.33;;
12958;SDS011;6544;51.666;6.634;2023-04-03T05:41:58;6.40;;;2.90;;
12958;SDS011;6544;51.666;6.634;2023-04-03T05:44:24;8.60;;;2.70;;
12958;SDS011;6544;51.666;6.634;2023-04-03T05:46:51;4.93;;;2.50;;
12958;SDS011;6544;51.666;6.634;2023-04-03T05:49:18;6.27;;;2.80;;
12958;SDS011;6544;51.666;6.634;2023-04-03T05:51:46;8.20;;;2.80;;
12958;SDS011;6544;51.666;6.634;2023-04-03T05:54:15;8.17;;;2.40;;
12958;SDS011;6544;51.666;6.634;2023-04-03T05:56:44;6.40;;;2.77;;
12958;SDS011;6544;51.666;6.634;2023-04-03T05:59:11;4.00;;;2.43;;
12958;SDS011;6544;51.666;6.634;2023-04-03T06:01:38;5.23;;;2.40;;
12958;SDS011;6544;51.666;6.634;2023-04-03T06:04:05;3.30;;;2.17;;
12958;SDS011;6544;51.666;6.634;2023-04-03T06:06:48;5.63;;;2.40;;
12958;SDS011;6544;51.666;6.634;2023-04-03T06:09:18;6.33;;;2.60;;
12958;SDS011;6544;51.666;6.634;2023-04-03T06:11:46;5.13;;;2.70;;
12958;SDS011;6544;51.666;6.634;2023-04-03T06:14:13;5.27;;;2.93;;
12958;SDS011;6544;51.666;6.634;2023-04-03T06:16:40;8.63;;;2.63;;
12958;SDS011;6544;51.666;6.634;2023-04-03T06:19:07;6.13;;;2.37;;
12958;SDS011;6544;51.666;6.634;2023-04-03T06:21:35;6.93;;;2.50;;
12958;SDS011;6544;51.666;6.634;2023-04-03T06:24:04;7.17;;;2.50;;
12958;SDS011;6544;51.666;6.634;2023-04-03T06:26:31;6.30;;;2.43;;
12958;SDS011;6544;51.666;6.634;2023-04-03T06:28:58;7.60;;;2.70;;
12958;SDS011;6544;51.666;6.634;2023-04-03T06:31:25;5.87;;;2.33;;
12958;SDS011;6544;51.666;6.634;2023-04-03T06:34:00;5.60;;;2.40;;
12958;SDS011;6544;51.666;6.634;2023-04-03T06:36:27;6.40;;;2.40;;
12958;SDS011;6544;51.666;6.634;2023-04-03T06:38:55;5.80;;;2.40;;
12958;SDS011;6544;51.666;6.634;2023-04-03T06:41:23;5.33;;;2.50;;
12958;SDS011;6544;51.666;6.634;2023-04-03T06:43:51;7.20;;;2.70;;
12958;SDS011;6544;51.666;6.634;2023-04-03T06:46:18;6.03;;;2.80;;
12958;SDS011;6544;51.666;6.634;2023-04-03T06:48:47;6.20;;;2.90;;
12958;SDS011;6544;51.666;6.634;2023-04-03T06:51:16;6.00;;;2.50;;
12958;SDS011;6544;51.666;6.634;2023-04-03T06:53:45;4.37;;;2.40;;
12958;SDS011;6544;51.666;6.634;2023-04-03T06:56:12;4.53;;;2.30;;
12958;SDS011;6544;51.666;6.634;2023-04-03T06:58:40;6.10;;;2.80;;
12958;SDS011;6544;51.666;6.634;2023-04-03T07:01:07;9.13;;;2.53;;
12958;SDS011;6544;51.666;6.634;2023-04-03T07:03:35;6.47;;;3.07;;
12958;SDS011;6544;51.666;6.634;2023-04-03T07:06:03;4.13;;;2.30;;
12958;SDS011;6544;51.666;6.634;2023-04-03T07:08:30;7.90;;;2.70;;
12958;SDS011;6544;51.666;6.634;2023-04-03T07:10:57;7.20;;;2.70;;
12958;SDS011;6544;51.666;6.634;2023-04-03T07:13:24;6.00;;;2.83;;
12958;SDS011;6544;51.666;6.634;2023-04-03T07:15:53;6.97;;;2.83;;
12958;SDS011;6544;51.666;6.634;2023-04-03T07:18:19;6.70;;;2.37;;
12958;SDS011;6544;51.666;6.634;2023-04-03T07:20:47;8.00;;;2.53;;
12958;SDS011;6544;51.666;6.634;2023-04-03T07:23:14;6.10;;;2.43;;
12958;SDS011;6544;51.666;6.634;2023-04-03T07:25:44;6.30;;;2.57;;
12958;SDS011;6544;51.666;6.634;2023-04-03T07:28:12;6.10;;;2.43;;
12958;SDS011;6544;51.666;6.634;2023-04-03T07:30:42;4.97;;;2.43;;
12958;SDS011;6544;51.666;6.634;2023-04-03T07:33:11;4.83;;;2.47;;
12958;SDS011;6544;51.666;6.634;2023-04-03T07:35:39;5.13;;;2.80;;
12958;SDS011;6544;51.666;6.634;2023-04-03T07:38:10;5.73;;;2.43;;
12958;SDS011;6544;51.666;6.634;2023-04-03T07:40:37;5.43;;;2.30;;
12958;SDS011;6544;51.666;6.634;2023-04-03T07:43:11;3.87;;;2.33;;
12958;SDS011;6544;51.666;6.634;2023-04-03T07:45:38;7.90;;;2.10;;
12958;SDS011;6544;51.666;6.634;2023-04-03T07:48:05;6.13;;;2.13;;
12958;SDS011;6544;51.666;6.634;2023-04-03T07:50:33;10.60;;;2.50;;
12958;SDS011;6544;51.666;6.634;2023-04-03T07:53:01;4.20;;;1.97;;
12958;SDS011;6544;51.666;6.634;2023-04-03T07:55:28;4.13;;;2.30;;
12958;SDS011;6544;51.666;6.634;2023-04-03T07:57:55;5.93;;;2.40;;
12958;SDS011;6544;51.666;6.634;2023-04-03T08:00:22;4.90;;;2.20;;
12958;SDS011;6544;51.666;6.634;2023-04-03T08:02:49;4.13;;;1.97;;
12958;SDS011;6544;51.666;6.634;2023-04-03T08:05:16;4.67;;;2.40;;
12958;SDS011;6544;51.666;6.634;2023-04-03T08:07:45;5.73;;;2.57;;
12958;SDS011;6544;51.666;6.634;2023-04-03T08:10:12;5.53;;;2.00;;
12958;SDS011;6544;51.666;6.634;2023-04-03T08:12:40;2.97;;;1.93;;
12958;SDS011;6544;51.666;6.634;2023-04-03T08:15:07;4.77;;;2.40;;
12958;SDS011;6544;51.666;6.634;2023-04-03T08:17:35;3.43;;;1.80;;
12958;SDS011;6544;51.666;6.634;2023-04-03T08:20:02;6.33;;;1.80;;
12958;SDS011;6544;51.666;6.634;2023-04-03T08:22:31;5.20;;;1.90;;
12958;SDS011;6544;51.666;6.634;2023-04-03T08:25:00;4.63;;;1.93;;
12958;SDS011;6544;51.666;6.634;2023-04-03T08:27:27;3.30;;;1.73;;
12958;SDS011;6544;51.666;6.634;2023-04-03T08:29:54;5.70;;;1.77;;
12958;SDS011;6544;51.666;6.634;2023-04-03T08:32:21;3.30;;;1.60;;
12958;SDS011;6544;51.666;6.634;2023-04-03T08:34:49;3.73;;;1.53;;
12958;SDS011;6544;51.666;6.634;2023-04-03T08:37:16;4.10;;;1.80;;
12958;SDS011;6544;51.666;6.634;2023-04-03T08:39:43;4.07;;;1.80;;
12958;SDS011;6544;51.666;6.634;2023-04-03T08:42:14;8.30;;;1.70;;
12958;SDS011;6544;51.666;6.634;2023-04-03T08:44:46;2.33;;;1.50;;
12958;SDS011;6544;51.666;6.634;2023-04-03T08:47:20;3.30;;;1.70;;
12958;SDS011;6544;51.666;6.634;2023-04-03T08:49:51;3.90;;;1.93;;
12958;SDS011;6544;51.666;6.634;2023-04-03T08:52:23;3.03;;;1.60;;
12958;SDS011;6544;51.666;6.634;2023-04-03T08:55:00;3.03;;;1.50;;
12958;SDS011;6544;51.666;6.634;2023-04-03T08:57:33;4.43;;;1.80;;
12958;SDS011;6544;51.666;6.634;2023-04-03T09:00:04;3.83;;;1.50;;
12958;SDS011;6544;51.666;6.634;2023-04-03T09:02:34;5.90;;;1.63;;
12958;SDS011;6544;51.666;6.634;2023-04-03T09:05:09;4.00;;;1.40;;
12958;SDS011;6544;51.666;6.634;2023-04-03T09:07:39;2.80;;;1.60;;
12958;SDS011;6544;51.666;6.634;2023-04-03T09:10:09;4.63;;;1.80;;
12958;SDS011;6544;51.666;6.634;2023-04-03T09:12:40;4.20;;;1.70;;
12958;SDS011;6544;51.666;6.634;2023-04-03T09:15:14;3.53;;;1.50;;
12958;SDS011;6544;51.666;6.634;2023-04-03T09:17:49;2.07;;;1.60;;
12958;SDS011;6544;51.666;6.634;2023-04-03T09:20:30;2.73;;;1.60;;
12958;SDS011;6544;51.666;6.634;2023-04-03T09:23:12;4.40;;;1.57;;
12958;SDS011;6544;51.666;6.634;2023-04-03T09:25:44;2.90;;;1.60;;
12958;SDS011;6544;51.666;6.634;2023-04-03T09:28:13;2.17;;;1.60;;
12958;SDS011;6544;51.666;6.634;2023-04-03T09:30:40;4.40;;;1.58;;
12958;SDS011;6544;51.666;6.634;2023-04-03T09:33:07;4.23;;;1.77;;
12958;SDS011;6544;51.666;6.634;2023-04-03T09:35:36;3.55;;;1.60;;
12958;SDS011;6544;51.666;6.634;2023-04-03T09:38:14;2.85;;;1.60;;
12958;SDS011;6544;51.666;6.634;2023-04-03T09:40:44;2.15;;;1.48;;
12958;SDS011;6544;51.666;6.634;2023-04-03T09:43:26;2.45;;;1.48;;
12958;SDS011;6544;51.666;6.634;2023-04-03T09:45:56;3.40;;;1.50;;
12958;SDS011;6544;51.666;6.634;2023-04-03T09:48:49;3.05;;;1.75;;
12958;SDS011;6544;51.666;6.634;2023-04-03T09:51:17;3.88;;;1.63;;
12958;SDS011;6544;51.666;6.634;2023-04-03T09:53:44;6.00;;;1.58;;
12958;SDS011;6544;51.666;6.634;2023-04-03T09:56:18;3.83;;;1.60;;
12958;SDS011;6544;51.666;6.634;2023-04-03T09:58:49;2.00;;;1.40;;
12958;SDS011;6544;51.666;6.634;2023-04-03T10:01:21;2.85;;;1.70;;
12958;SDS011;6544;51.666;6.634;2023-04-03T10:04:03;3.58;;;1.70;;
12958;SDS011;6544;51.666;6.634;2023-04-03T10:06:35;2.97;;;1.40;;
12958;SDS011;6544;51.666;6.634;2023-04-03T10:09:06;3.53;;;1.50;;
12958;SDS011;6544;51.666;6.634;2023-04-03T10:11:44;3.63;;;1.50;;
12958;SDS011;6544;51.666;6.634;2023-04-03T10:14:27;2.75;;;1.58;;
12958;SDS011;6544;51.666;6.634;2023-04-03T10:16:57;2.55;;;1.60;;
12958;SDS011;6544;51.666;6.634;2023-04-03T10:19:43;5.05;;;1.67;;
12958;SDS011;6544;51.666;6.634;2023-04-03T10:22:15;3.42;;;1.60;;
12958;SDS011;6544;51.666;6.634;2023-04-03T10:24:48;2.33;;;1.60;;
12958;SDS011;6544;51.666;6.634;2023-04-03T10:27:22;2.88;;;1.63;;
12958;SDS011;6544;51.666;6.634;2023-04-03T10:30:01;3.47;;;1.70;;
12958;SDS011;6544;51.666;6.634;2023-04-03T10:32:42;2.10;;;1.50;;
12958;SDS011;6544;51.666;6.634;2023-04-03T10:35:25;2.25;;;1.30;;
12958;SDS011;6544;51.666;6.634;2023-04-03T10:38:04;3.88;;;1.75;;
12958;SDS011;6544;51.666;6.634;2023-04-03T10:40:39;3.10;;;1.70;;
12958;SDS011;6544;51.666;6.634;2023-04-03T10:43:14;2.72;;;1.40;;
12958;SDS011;6544;51.666;6.634;2023-04-03T10:45:51;2.95;;;1.52;;
12958;SDS011;6544;51.666;6.634;2023-04-03T10:48:28;3.50;;;1.50;;
12958;SDS011;6544;51.666;6.634;2023-04-03T10:51:06;2.67;;;1.63;;
12958;SDS011;6544;51.666;6.634;2023-04-03T10:53:42;2.83;;;1.50;;
12958;SDS011;6544;51.666;6.634;2023-04-03T10:56:18;3.33;;;1.50;;
12958;SDS011;6544;51.666;6.634;2023-04-03T10:58:54;6.05;;;1.85;;
12958;SDS011;6544;51.666;6.634;2023-04-03T11:01:26;2.03;;;1.40;;
12958;SDS011;6544;51.666;6.634;2023-04-03T11:03:59;4.60;;;1.60;;
12958;SDS011;6544;51.666;6.634;2023-04-03T11:06:30;3.42;;;1.60;;
12958;SDS011;6544;51.666;6.634;2023-04-03T11:09:03;3.13;;;1.50;;
12958;SDS011;6544;51.666;6.634;2023-04-03T11:11:37;2.35;;;1.40;;
12958;SDS011;6544;51.666;6.634;2023-04-03T11:14:09;3.50;;;1.50;;
12958;SDS011;6544;51.666;6.634;2023-04-03T11:16:43;3.40;;;1.45;;
12958;SDS011;6544;51.666;6.634;2023-04-03T11:19:15;2.45;;;1.50;;
12958;SDS011;6544;51.666;6.634;2023-04-03T11:21:50;2.53;;;1.60;;
12958;SDS011;6544;51.666;6.634;2023-04-03T11:24:22;2.45;;;1.52;;
12958;SDS011;6544;51.666;6.634;2023-04-03T11:26:51;3.58;;;1.42;;
12958;SDS011;6544;51.666;6.634;2023-04-03T11:29:20;3.78;;;1.70;;
12958;SDS011;6544;51.666;6.634;2023-04-03T11:32:01;4.68;;;1.50;;
12958;SDS011;6544;51.666;6.634;2023-04-03T11:34:36;2.70;;;1.50;;
12958;SDS011;6544;51.666;6.634;2023-04-03T11:37:15;3.13;;;1.45;;
12958;SDS011;6544;51.666;6.634;2023-04-03T11:39:50;2.70;;;1.50;;
12958;SDS011;6544;51.666;6.634;2023-04-03T11:42:26;4.68;;;2.13;;
12958;SDS011;6544;51.666;6.634;2023-04-03T11:45:17;3.25;;;1.85;;
12958;SDS011;6544;51.666;6.634;2023-04-03T11:47:55;2.88;;;1.55;;
12958;SDS011;6544;51.666;6.634;2023-04-03T11:50:30;2.92;;;1.70;;
12958;SDS011;6544;51.666;6.634;2023-04-03T11:56:01;2.38;;;1.58;;
12958;SDS011;6544;51.666;6.634;2023-04-03T11:58:30;3.83;;;1.48;;
12958;SDS011;6544;51.666;6.634;2023-04-03T12:01:08;2.80;;;1.58;;
12958;SDS011;6544;51.666;6.634;2023-04-03T12:12:29;2.85;;;1.80;;
12958;SDS011;6544;51.666;6.634;2023-04-03T12:17:47;4.78;;;1.83;;
12958;SDS011;6544;51.666;6.634;2023-04-03T12:23:32;4.10;;;1.77;;
12958;SDS011;6544;51.666;6.634;2023-04-03T12:26:03;6.18;;;1.60;;
12958;SDS011;6544;51.666;6.634;2023-04-03T12:28:47;2.88;;;1.67;;
12958;SDS011;6544;51.666;6.634;2023-04-03T12:31:18;2.05;;;1.40;;
12958;SDS011;6544;51.666;6.634;2023-04-03T12:33:56;3.80;;;1.75;;
12958;SDS011;6544;51.666;6.634;2023-04-03T12:36:37;3.90;;;1.67;;
12958;SDS011;6544;51.666;6.634;2023-04-03T12:39:25;3.25;;;1.60;;
12958;SDS011;6544;51.666;6.634;2023-04-03T12:42:14;3.78;;;1.80;;
12958;SDS011;6544;51.666;6.634;2023-04-03T12:44:53;3.15;;;1.50;;
12958;SDS011;6544;51.666;6.634;2023-04-03T12:47:28;3.40;;;1.70;;
12958;SDS011;6544;51.666;6.634;2023-04-03T12:49:58;3.28;;;1.75;;
12958;SDS011;6544;51.666;6.634;2023-04-03T12:52:37;4.03;;;1.63;;
12958;SDS011;6544;51.666;6.634;2023-04-03T12:55:12;2.88;;;1.70;;
12958;SDS011;6544;51.666;6.634;2023-04-03T12:57:41;2.15;;;1.50;;
12958;SDS011;6544;51.666;6.634;2023-04-03T13:00:22;2.58;;;1.55;;
12958;SDS011;6544;51.666;6.634;2023-04-03T13:02:55;2.60;;;1.50;;
12958;SDS011;6544;51.666;6.634;2023-04-03T13:05:22;5.32;;;1.58;;
12958;SDS011;6544;51.666;6.634;2023-04-03T13:07:52;4.03;;;1.88;;
12958;SDS011;6544;51.666;6.634;2023-04-03T13:10:24;4.28;;;2.13;;
12958;SDS011;6544;51.666;6.634;2023-04-03T13:12:52;2.53;;;1.75;;
12958;SDS011;6544;51.666;6.634;2023-04-03T13:15:21;3.08;;;1.70;;
12958;SDS011;6544;51.666;6.634;2023-04-03T13:17:49;2.30;;;1.60;;
12958;SDS011;6544;51.666;6.634;2023-04-03T13:20:18;3.90;;;2.10;;
12958;SDS011;6544;51.666;6.634;2023-04-03T13:22:53;4.60;;;1.80;;
12958;SDS011;6544;51.666;6.634;2023-04-03T13:25:25;3.08;;;1.58;;
12958;SDS011;6544;51.666;6.634;2023-04-03T13:27:56;2.17;;;1.50;;
12958;SDS011;6544;51.666;6.634;2023-04-03T13:30:26;4.95;;;1.55;;
12958;SDS011;6544;51.666;6.634;2023-04-03T13:32:55;3.28;;;1.85;;
12958;SDS011;6544;51.666;6.634;2023-04-03T13:35:28;3.85;;;1.67;;
12958;SDS011;6544;51.666;6.634;2023-04-03T13:37:58;3.40;;;1.80;;
12958;SDS011;6544;51.666;6.634;2023-04-03T13:40:28;4.13;;;1.70;;
12958;SDS011;6544;51.666;6.634;2023-04-03T13:43:03;3.13;;;1.70;;
12958;SDS011;6544;51.666;6.634;2023-04-03T13:45:32;4.05;;;1.80;;
12958;SDS011;6544;51.666;6.634;2023-04-03T13:48:10;3.25;;;1.80;;
12958;SDS011;6544;51.666;6.634;2023-04-03T13:50:57;3.45;;;1.52;;
12958;SDS011;6544;51.666;6.634;2023-04-03T13:53:26;3.08;;;1.63;;
12958;SDS011;6544;51.666;6.634;2023-04-03T13:55:57;2.67;;;1.60;;
12958;SDS011;6544;51.666;6.634;2023-04-03T13:58:36;3.75;;;1.73;;
12958;SDS011;6544;51.666;6.634;2023-04-03T14:01:11;2.88;;;1.77;;
12958;SDS011;6544;51.666;6.634;2023-04-03T14:03:44;4.28;;;1.90;;
12958;SDS011;6544;51.666;6.634;2023-04-03T14:06:14;2.40;;;1.75;;
12958;SDS011;6544;51.666;6.634;2023-04-03T14:08:42;3.33;;;1.50;;
12958;SDS011;6544;51.666;6.634;2023-04-03T14:11:13;2.80;;;1.70;;
12958;SDS011;6544;51.666;6.634;2023-04-03T14:13:42;2.08;;;1.50;;
12958;SDS011;6544;51.666;6.634;2023-04-03T14:16:12;2.90;;;1.80;;
12958;SDS011;6544;51.666;6.634;2023-04-03T14:18:39;3.85;;;1.48;;
12958;SDS011;6544;51.666;6.634;2023-04-03T14:21:06;4.00;;;1.70;;
12958;SDS011;6544;51.666;6.634;2023-04-03T14:23:35;4.95;;;1.55;;
12958;SDS011;6544;51.666;6.634;2023-04-03T14:26:02;3.58;;;1.63;;
12958;SDS011;6544;51.666;6.634;2023-04-03T14:28:32;4.93;;;2.00;;
12958;SDS011;6544;51.666;6.634;2023-04-03T14:30:59;4.05;;;1.70;;
12958;SDS011;6544;51.666;6.634;2023-04-03T14:33:26;3.38;;;1.60;;
12958;SDS011;6544;51.666;6.634;2023-04-03T14:35:56;3.20;;;1.80;;
12958;SDS011;6544;51.666;6.634;2023-04-03T14:38:24;4.60;;;1.60;;
12958;SDS011;6544;51.666;6.634;2023-04-03T14:40:52;2.83;;;1.77;;
12958;SDS011;6544;51.666;6.634;2023-04-03T14:43:20;4.07;;;1.80;;
12958;SDS011;6544;51.666;6.634;2023-04-03T14:45:49;3.13;;;1.67;;
12958;SDS011;6544;51.666;6.634;2023-04-03T14:48:17;3.30;;;1.90;;
12958;SDS011;6544;51.666;6.634;2023-04-03T14:50:46;2.95;;;1.65;;
12958;SDS011;6544;51.666;6.634;2023-04-03T14:53:14;3.85;;;1.63;;
12958;SDS011;6544;51.666;6.634;2023-04-03T14:55:42;4.05;;;1.92;;
12958;SDS011;6544;51.666;6.634;2023-04-03T14:58:14;2.90;;;1.63;;
12958;SDS011;6544;51.666;6.634;2023-04-03T15:00:42;3.38;;;1.60;;
12958;SDS011;6544;51.666;6.634;2023-04-03T15:03:14;4.38;;;2.17;;
12958;SDS011;6544;51.666;6.634;2023-04-03T15:05:42;3.53;;;1.70;;
12958;SDS011;6544;51.666;6.634;2023-04-03T15:08:17;3.10;;;1.52;;
12958;SDS011;6544;51.666;6.634;2023-04-03T15:10:46;3.58;;;1.70;;
12958;SDS011;6544;51.666;6.634;2023-04-03T15:13:13;2.92;;;1.58;;
12958;SDS011;6544;51.666;6.634;2023-04-03T15:15:40;3.47;;;1.70;;
12958;SDS011;6544;51.666;6.634;2023-04-03T15:18:10;3.80;;;1.80;;
12958;SDS011;6544;51.666;6.634;2023-04-03T15:20:43;3.22;;;1.73;;
12958;SDS011;6544;51.666;6.634;2023-04-03T15:23:11;5.38;;;1.83;;
12958;SDS011;6544;51.666;6.634;2023-04-03T15:25:40;3.97;;;1.80;;
12958;SDS011;6544;51.666;6.634;2023-04-03T15:28:08;2.50;;;1.60;;
12958;SDS011;6544;51.666;6.634;2023-04-03T15:30:41;4.35;;;1.80;;
12958;SDS011;6544;51.666;6.634;2023-04-03T15:33:08;3.60;;;1.73;;
12958;SDS011;6544;51.666;6.634;2023-04-03T15:35:36;5.30;;;2.10;;
12958;SDS011;6544;51.666;6.634;2023-04-03T15:38:03;3.42;;;2.13;;